sensor_id;sensor_type;location;lat;lon;timestamp;temperature;humidity
262;DHT22;114;48.260;10.988;2023-05-02T00:02:00;8.80;99.90
262;DHT22;114;48.260;10.988;2023-05-02T00:04:26;8.80;99.90
262;DHT22;114;48.260;10.988;2023-05-02T00:06:52;8.70;99.90
262;DHT22;114;48.260;10.988;2023-05-02T00:09:18;8.70;99.90
262;DHT22;114;48.260;10.988;2023-05-02T00:11:44;8.60;99.90
262;DHT22;114;48.260;10.988;2023-05-02T00:14:09;8.60;99.90
262;DHT22;114;48.260;10.988;2023-05-02T00:16:35;8.70;99.90
262;DHT22;114;48.260;10.988;2023-05-02T00:19:01;8.70;99.90
262;DHT22;114;48.260;10.988;2023-05-02T00:21:26;8.60;99.90
262;DHT22;114;48.260;10.988;2023-05-02T00:23:54;8.60;99.90
262;DHT22;114;48.260;10.988;2023-05-02T00:26:21;8.50;99.90
262;DHT22;114;48.260;10.988;2023-05-02T00:28:47;8.50;99.90
262;DHT22;114;48.260;10.988;2023-05-02T00:31:13;8.50;99.90
262;DHT22;114;48.260;10.988;2023-05-02T00:33:39;8.50;99.90
262;DHT22;114;48.260;10.988;2023-05-02T00:36:15;8.40;99.90
262;DHT22;114;48.260;10.988;2023-05-02T00:38:41;8.40;99.90
262;DHT22;114;48.260;10.988;2023-05-02T00:41:07;8.40;99.90
262;DHT22;114;48.260;10.988;2023-05-02T00:43:33;8.40;99.90
262;DHT22;114;48.260;10.988;2023-05-02T00:45:58;8.30;99.90
262;DHT22;114;48.260;10.988;2023-05-02T00:48:25;8.30;99.90
262;DHT22;114;48.260;10.988;2023-05-02T00:50:51;8.30;99.90
262;DHT22;114;48.260;10.988;2023-05-02T00:53:16;8.30;99.90
262;DHT22;114;48.260;10.988;2023-05-02T00:55:42;8.30;99.90
262;DHT22;114;48.260;10.988;2023-05-02T00:58:13;8.20;99.90
262;DHT22;114;48.260;10.988;2023-05-02T01:06:09;8.20;99.90
262;DHT22;114;48.260;10.988;2023-05-02T01:08:46;8.10;99.90
262;DHT22;114;48.260;10.988;2023-05-02T01:11:34;8.00;99.90
262;DHT22;114;48.260;10.988;2023-05-02T01:14:04;8.00;99.90
262;DHT22;114;48.260;10.988;2023-05-02T01:16:32;8.10;99.90
262;DHT22;114;48.260;10.988;2023-05-02T01:19:04;8.10;99.90
262;DHT22;114;48.260;10.988;2023-05-02T01:21:30;8.00;99.90
262;DHT22;114;48.260;10.988;2023-05-02T01:24:13;8.00;99.90
262;DHT22;114;48.260;10.988;2023-05-02T01:26:58;7.90;99.90
262;DHT22;114;48.260;10.988;2023-05-02T01:29:28;7.90;99.90
262;DHT22;114;48.260;10.988;2023-05-02T01:31:56;7.80;99.90
262;DHT22;114;48.260;10.988;2023-05-02T01:34:22;7.80;99.90
262;DHT22;114;48.260;10.988;2023-05-02T01:36:51;7.80;99.90
262;DHT22;114;48.260;10.988;2023-05-02T01:39:21;7.90;99.90
262;DHT22;114;48.260;10.988;2023-05-02T01:41:49;7.80;99.90
262;DHT22;114;48.260;10.988;2023-05-02T01:44:18;7.80;99.90
262;DHT22;114;48.260;10.988;2023-05-02T01:46:45;7.80;99.90
262;DHT22;114;48.260;10.988;2023-05-02T01:49:11;7.80;99.90
262;DHT22;114;48.260;10.988;2023-05-02T01:51:43;7.70;99.90
262;DHT22;114;48.260;10.988;2023-05-02T01:54:12;7.70;99.90
262;DHT22;114;48.260;10.988;2023-05-02T01:56:38;7.70;99.90
262;DHT22;114;48.260;10.988;2023-05-02T01:59:07;7.70;99.90
262;DHT22;114;48.260;10.988;2023-05-02T02:01:35;7.70;99.90
262;DHT22;114;48.260;10.988;2023-05-02T02:04:03;7.70;99.90
262;DHT22;114;48.260;10.988;2023-05-02T02:06:29;7.70;99.90
262;DHT22;114;48.260;10.988;2023-05-02T02:08:55;7.70;99.90
262;DHT22;114;48.260;10.988;2023-05-02T02:11:26;7.70;99.90
262;DHT22;114;48.260;10.988;2023-05-02T02:14:04;7.70;99.90
262;DHT22;114;48.260;10.988;2023-05-02T02:16:33;7.70;99.90
262;DHT22;114;48.260;10.988;2023-05-02T02:19:05;7.70;99.90
262;DHT22;114;48.260;10.988;2023-05-02T02:21:33;7.70;99.90
262;DHT22;114;48.260;10.988;2023-05-02T02:24:02;7.70;99.90
262;DHT22;114;48.260;10.988;2023-05-02T02:26:28;7.70;99.90
262;DHT22;114;48.260;10.988;2023-05-02T02:28:55;7.70;99.90
262;DHT22;114;48.260;10.988;2023-05-02T02:31:20;7.70;99.90
262;DHT22;114;48.260;10.988;2023-05-02T02:33:46;7.70;99.90
262;DHT22;114;48.260;10.988;2023-05-02T02:36:33;7.70;99.90
262;DHT22;114;48.260;10.988;2023-05-02T02:45:04;7.80;99.90
262;DHT22;114;48.260;10.988;2023-05-02T02:56:15;7.80;99.90
262;DHT22;114;48.260;10.988;2023-05-02T02:59:03;7.80;99.90
262;DHT22;114;48.260;10.988;2023-05-02T03:01:31;7.80;99.90
262;DHT22;114;48.260;10.988;2023-05-02T03:03:57;7.80;99.90
262;DHT22;114;48.260;10.988;2023-05-02T03:06:23;7.80;99.90
262;DHT22;114;48.260;10.988;2023-05-02T03:08:49;7.70;99.90
262;DHT22;114;48.260;10.988;2023-05-02T03:11:15;7.70;99.90
262;DHT22;114;48.260;10.988;2023-05-02T03:13:41;7.70;99.90
262;DHT22;114;48.260;10.988;2023-05-02T03:16:30;7.70;99.90
262;DHT22;114;48.260;10.988;2023-05-02T03:18:56;7.70;99.90
262;DHT22;114;48.260;10.988;2023-05-02T03:21:22;7.70;99.90
262;DHT22;114;48.260;10.988;2023-05-02T03:23:48;7.70;99.90
262;DHT22;114;48.260;10.988;2023-05-02T03:26:14;7.70;99.90
262;DHT22;114;48.260;10.988;2023-05-02T03:28:40;7.70;99.90
262;DHT22;114;48.260;10.988;2023-05-02T03:31:06;7.60;99.90
262;DHT22;114;48.260;10.988;2023-05-02T03:33:32;7.70;99.90
262;DHT22;114;48.260;10.988;2023-05-02T03:35:58;7.60;99.90
262;DHT22;114;48.260;10.988;2023-05-02T03:38:23;7.60;99.90
262;DHT22;114;48.260;10.988;2023-05-02T03:40:49;7.60;99.90
262;DHT22;114;48.260;10.988;2023-05-02T03:43:15;7.70;99.90
262;DHT22;114;48.260;10.988;2023-05-02T03:45:40;7.60;99.90
262;DHT22;114;48.260;10.988;2023-05-02T03:48:06;7.70;99.90
262;DHT22;114;48.260;10.988;2023-05-02T03:50:32;7.60;99.90
262;DHT22;114;48.260;10.988;2023-05-02T03:52:57;7.60;99.90
262;DHT22;114;48.260;10.988;2023-05-02T03:55:23;7.60;99.90
262;DHT22;114;48.260;10.988;2023-05-02T03:57:49;7.60;99.90
262;DHT22;114;48.260;10.988;2023-05-02T04:00:14;7.60;99.90
262;DHT22;114;48.260;10.988;2023-05-02T04:02:40;7.60;99.90
262;DHT22;114;48.260;10.988;2023-05-02T04:05:06;7.60;99.90
262;DHT22;114;48.260;10.988;2023-05-02T04:07:34;7.60;99.90
262;DHT22;114;48.260;10.988;2023-05-02T04:09:59;7.70;99.90
262;DHT22;114;48.260;10.988;2023-05-02T04:12:25;7.70;99.90
262;DHT22;114;48.260;10.988;2023-05-02T04:14:51;7.70;99.90
262;DHT22;114;48.260;10.988;2023-05-02T04:17:16;7.70;99.90
262;DHT22;114;48.260;10.988;2023-05-02T04:19:42;7.70;99.90
262;DHT22;114;48.260;10.988;2023-05-02T04:22:08;7.70;99.90
262;DHT22;114;48.260;10.988;2023-05-02T04:24:33;7.80;99.90
262;DHT22;114;48.260;10.988;2023-05-02T04:26:59;7.80;99.90
262;DHT22;114;48.260;10.988;2023-05-02T04:29:25;7.80;99.90
262;DHT22;114;48.260;10.988;2023-05-02T04:31:51;7.80;99.90
262;DHT22;114;48.260;10.988;2023-05-02T04:34:18;7.90;99.90
262;DHT22;114;48.260;10.988;2023-05-02T04:36:46;7.90;99.90
262;DHT22;114;48.260;10.988;2023-05-02T04:39:12;7.90;99.90
262;DHT22;114;48.260;10.988;2023-05-02T04:41:38;8.00;99.90
262;DHT22;114;48.260;10.988;2023-05-02T04:44:04;7.90;99.90
262;DHT22;114;48.260;10.988;2023-05-02T04:46:29;8.00;99.90
262;DHT22;114;48.260;10.988;2023-05-02T04:48:55;8.00;99.90
262;DHT22;114;48.260;10.988;2023-05-02T04:51:21;8.10;99.90
262;DHT22;114;48.260;10.988;2023-05-02T04:53:46;8.20;99.90
262;DHT22;114;48.260;10.988;2023-05-02T04:56:12;8.20;99.90
262;DHT22;114;48.260;10.988;2023-05-02T04:58:38;8.20;99.90
262;DHT22;114;48.260;10.988;2023-05-02T05:01:03;8.20;99.90
262;DHT22;114;48.260;10.988;2023-05-02T05:03:29;8.30;99.90
262;DHT22;114;48.260;10.988;2023-05-02T05:05:55;8.30;99.90
262;DHT22;114;48.260;10.988;2023-05-02T05:08:22;8.40;99.90
262;DHT22;114;48.260;10.988;2023-05-02T05:10:49;8.50;99.90
262;DHT22;114;48.260;10.988;2023-05-02T05:13:14;8.60;99.90
262;DHT22;114;48.260;10.988;2023-05-02T05:15:40;8.70;99.90
262;DHT22;114;48.260;10.988;2023-05-02T05:18:06;8.90;99.90
262;DHT22;114;48.260;10.988;2023-05-02T05:20:32;9.00;99.90
262;DHT22;114;48.260;10.988;2023-05-02T05:22:58;8.90;99.90
262;DHT22;114;48.260;10.988;2023-05-02T05:25:27;9.00;99.90
262;DHT22;114;48.260;10.988;2023-05-02T05:27:53;9.00;99.90
262;DHT22;114;48.260;10.988;2023-05-02T05:30:20;9.00;99.90
262;DHT22;114;48.260;10.988;2023-05-02T05:32:46;9.10;99.90
262;DHT22;114;48.260;10.988;2023-05-02T05:35:12;9.20;99.90
262;DHT22;114;48.260;10.988;2023-05-02T05:37:38;9.30;99.90
262;DHT22;114;48.260;10.988;2023-05-02T05:40:07;9.40;98.20
262;DHT22;114;48.260;10.988;2023-05-02T05:42:34;9.40;97.40
262;DHT22;114;48.260;10.988;2023-05-02T05:44:59;9.40;97.60
262;DHT22;114;48.260;10.988;2023-05-02T05:47:25;9.60;97.70
262;DHT22;114;48.260;10.988;2023-05-02T05:49:55;9.50;96.70
262;DHT22;114;48.260;10.988;2023-05-02T05:52:21;9.60;96.00
262;DHT22;114;48.260;10.988;2023-05-02T05:54:47;9.60;95.90
262;DHT22;114;48.260;10.988;2023-05-02T05:57:13;9.50;95.70
262;DHT22;114;48.260;10.988;2023-05-02T05:59:38;9.70;94.90
262;DHT22;114;48.260;10.988;2023-05-02T06:02:04;9.80;94.20
262;DHT22;114;48.260;10.988;2023-05-02T06:04:30;9.90;92.80
262;DHT22;114;48.260;10.988;2023-05-02T06:06:56;10.10;92.00
262;DHT22;114;48.260;10.988;2023-05-02T06:09:21;10.20;90.50
262;DHT22;114;48.260;10.988;2023-05-02T06:11:47;10.30;90.50
262;DHT22;114;48.260;10.988;2023-05-02T06:14:13;10.10;90.20
262;DHT22;114;48.260;10.988;2023-05-02T06:16:39;10.10;88.10
262;DHT22;114;48.260;10.988;2023-05-02T06:19:04;10.20;89.50
262;DHT22;114;48.260;10.988;2023-05-02T06:21:30;10.30;90.60
262;DHT22;114;48.260;10.988;2023-05-02T06:23:56;10.40;85.30
262;DHT22;114;48.260;10.988;2023-05-02T06:26:22;10.50;83.10
262;DHT22;114;48.260;10.988;2023-05-02T06:28:48;10.60;75.20
262;DHT22;114;48.260;10.988;2023-05-02T06:31:13;10.60;76.60
262;DHT22;114;48.260;10.988;2023-05-02T06:33:40;10.70;75.20
262;DHT22;114;48.260;10.988;2023-05-02T06:36:07;10.60;73.90
262;DHT22;114;48.260;10.988;2023-05-02T06:38:32;10.60;72.70
262;DHT22;114;48.260;10.988;2023-05-02T06:40:58;10.70;78.20
262;DHT22;114;48.260;10.988;2023-05-02T06:43:24;10.80;76.90
262;DHT22;114;48.260;10.988;2023-05-02T06:45:52;10.80;71.70
262;DHT22;114;48.260;10.988;2023-05-02T06:48:19;10.90;69.20
262;DHT22;114;48.260;10.988;2023-05-02T06:50:45;11.00;69.40
262;DHT22;114;48.260;10.988;2023-05-02T06:53:11;11.10;69.60
262;DHT22;114;48.260;10.988;2023-05-02T06:55:36;11.00;70.60
262;DHT22;114;48.260;10.988;2023-05-02T06:58:02;11.10;71.40
262;DHT22;114;48.260;10.988;2023-05-02T07:00:28;11.30;64.60
262;DHT22;114;48.260;10.988;2023-05-02T07:02:53;11.20;59.80
262;DHT22;114;48.260;10.988;2023-05-02T07:05:19;11.20;57.00
262;DHT22;114;48.260;10.988;2023-05-02T07:07:45;11.20;61.90
262;DHT22;114;48.260;10.988;2023-05-02T07:10:11;11.30;63.60
262;DHT22;114;48.260;10.988;2023-05-02T07:12:37;11.30;62.60
262;DHT22;114;48.260;10.988;2023-05-02T07:15:07;11.30;61.40
262;DHT22;114;48.260;10.988;2023-05-02T07:17:33;11.30;60.60
262;DHT22;114;48.260;10.988;2023-05-02T07:19:58;11.40;61.00
262;DHT22;114;48.260;10.988;2023-05-02T07:22:24;11.40;62.70
262;DHT22;114;48.260;10.988;2023-05-02T07:24:58;11.80;56.50
262;DHT22;114;48.260;10.988;2023-05-02T07:27:23;11.70;51.70
262;DHT22;114;48.260;10.988;2023-05-02T07:29:49;11.70;53.70
262;DHT22;114;48.260;10.988;2023-05-02T07:32:15;12.00;44.90
262;DHT22;114;48.260;10.988;2023-05-02T07:34:41;12.00;45.80
262;DHT22;114;48.260;10.988;2023-05-02T07:37:08;12.10;46.50
262;DHT22;114;48.260;10.988;2023-05-02T07:39:34;12.10;38.80
262;DHT22;114;48.260;10.988;2023-05-02T07:42:00;12.40;38.50
262;DHT22;114;48.260;10.988;2023-05-02T07:44:25;12.60;36.70
262;DHT22;114;48.260;10.988;2023-05-02T07:46:51;12.80;30.00
262;DHT22;114;48.260;10.988;2023-05-02T07:49:18;13.30;29.70
262;DHT22;114;48.260;10.988;2023-05-02T07:51:44;13.30;25.30
262;DHT22;114;48.260;10.988;2023-05-02T07:54:20;13.40;21.90
262;DHT22;114;48.260;10.988;2023-05-02T07:56:46;13.90;20.30
262;DHT22;114;48.260;10.988;2023-05-02T07:59:13;13.80;17.80
262;DHT22;114;48.260;10.988;2023-05-02T08:01:39;13.90;20.20
262;DHT22;114;48.260;10.988;2023-05-02T08:04:06;14.10;15.90
262;DHT22;114;48.260;10.988;2023-05-02T08:06:33;14.30;18.90
262;DHT22;114;48.260;10.988;2023-05-02T08:08:59;14.10;17.10
262;DHT22;114;48.260;10.988;2023-05-02T08:11:25;13.80;18.00
262;DHT22;114;48.260;10.988;2023-05-02T08:13:51;13.60;20.00
262;DHT22;114;48.260;10.988;2023-05-02T08:16:18;13.60;22.00
262;DHT22;114;48.260;10.988;2023-05-02T08:18:43;14.00;19.60
262;DHT22;114;48.260;10.988;2023-05-02T08:21:09;14.20;17.60
262;DHT22;114;48.260;10.988;2023-05-02T08:23:35;14.80;12.60
262;DHT22;114;48.260;10.988;2023-05-02T08:26:02;14.70;12.20
262;DHT22;114;48.260;10.988;2023-05-02T08:28:27;15.10;10.10
262;DHT22;114;48.260;10.988;2023-05-02T08:30:53;15.10;7.40
262;DHT22;114;48.260;10.988;2023-05-02T08:33:19;15.30;10.50
262;DHT22;114;48.260;10.988;2023-05-02T08:35:44;15.20;8.20
262;DHT22;114;48.260;10.988;2023-05-02T08:38:10;15.20;8.30
262;DHT22;114;48.260;10.988;2023-05-02T08:40:37;15.30;7.10
262;DHT22;114;48.260;10.988;2023-05-02T08:43:03;15.60;9.50
262;DHT22;114;48.260;10.988;2023-05-02T08:45:41;15.60;4.30
262;DHT22;114;48.260;10.988;2023-05-02T08:48:09;15.60;1.40
262;DHT22;114;48.260;10.988;2023-05-02T08:50:39;15.40;1.80
262;DHT22;114;48.260;10.988;2023-05-02T08:53:07;15.30;6.00
262;DHT22;114;48.260;10.988;2023-05-02T08:55:35;15.20;6.40
262;DHT22;114;48.260;10.988;2023-05-02T08:58:05;14.90;8.90
262;DHT22;114;48.260;10.988;2023-05-02T09:00:32;14.60;9.50
262;DHT22;114;48.260;10.988;2023-05-02T09:05:56;14.40;13.40
262;DHT22;114;48.260;10.988;2023-05-02T09:08:25;14.60;11.50
262;DHT22;114;48.260;10.988;2023-05-02T09:10:51;14.90;10.40
262;DHT22;114;48.260;10.988;2023-05-02T09:16:07;15.10;8.30
262;DHT22;114;48.260;10.988;2023-05-02T09:18:45;15.30;7.70
262;DHT22;114;48.260;10.988;2023-05-02T09:21:15;14.90;6.80
262;DHT22;114;48.260;10.988;2023-05-02T09:23:48;14.80;8.80
262;DHT22;114;48.260;10.988;2023-05-02T09:26:24;14.80;7.90
262;DHT22;114;48.260;10.988;2023-05-02T09:29:02;14.70;6.50
262;DHT22;114;48.260;10.988;2023-05-02T09:31:30;14.90;5.50
262;DHT22;114;48.260;10.988;2023-05-02T09:34:21;14.70;7.80
262;DHT22;114;48.260;10.988;2023-05-02T09:36:49;14.60;10.30
262;DHT22;114;48.260;10.988;2023-05-02T09:39:23;15.00;7.30
262;DHT22;114;48.260;10.988;2023-05-02T09:41:50;15.10;6.00
262;DHT22;114;48.260;10.988;2023-05-02T09:44:17;14.90;4.80
262;DHT22;114;48.260;10.988;2023-05-02T09:46:46;15.10;4.80
262;DHT22;114;48.260;10.988;2023-05-02T09:49:12;15.20;4.00
262;DHT22;114;48.260;10.988;2023-05-02T09:51:39;14.90;4.70
262;DHT22;114;48.260;10.988;2023-05-02T09:54:05;14.70;7.50
262;DHT22;114;48.260;10.988;2023-05-02T09:56:53;14.80;6.30
262;DHT22;114;48.260;10.988;2023-05-02T09:59:21;15.40;2.80
262;DHT22;114;48.260;10.988;2023-05-02T10:01:55;16.30;2.90
262;DHT22;114;48.260;10.988;2023-05-02T10:04:21;16.80;1.00
262;DHT22;114;48.260;10.988;2023-05-02T10:06:50;17.20;1.00
262;DHT22;114;48.260;10.988;2023-05-02T10:09:18;17.20;1.00
262;DHT22;114;48.260;10.988;2023-05-02T10:11:45;17.30;1.00
262;DHT22;114;48.260;10.988;2023-05-02T10:14:11;17.10;1.00
262;DHT22;114;48.260;10.988;2023-05-02T10:16:54;17.00;1.00
262;DHT22;114;48.260;10.988;2023-05-02T10:19:23;16.10;1.00
262;DHT22;114;48.260;10.988;2023-05-02T10:21:52;16.60;1.00
262;DHT22;114;48.260;10.988;2023-05-02T10:24:20;17.00;1.00
262;DHT22;114;48.260;10.988;2023-05-02T10:26:46;16.60;1.00
262;DHT22;114;48.260;10.988;2023-05-02T10:29:12;16.50;1.00
262;DHT22;114;48.260;10.988;2023-05-02T10:31:39;16.50;1.00
262;DHT22;114;48.260;10.988;2023-05-02T10:34:10;16.10;1.00
262;DHT22;114;48.260;10.988;2023-05-02T10:36:36;15.90;1.00
262;DHT22;114;48.260;10.988;2023-05-02T10:39:02;15.70;1.00
262;DHT22;114;48.260;10.988;2023-05-02T10:41:30;15.60;1.00
262;DHT22;114;48.260;10.988;2023-05-02T10:43:57;15.40;1.00
262;DHT22;114;48.260;10.988;2023-05-02T10:46:34;15.20;1.00
262;DHT22;114;48.260;10.988;2023-05-02T10:49:10;15.10;1.00
262;DHT22;114;48.260;10.988;2023-05-02T10:51:41;15.00;1.00
262;DHT22;114;48.260;10.988;2023-05-02T11:02:01;15.40;3.10
262;DHT22;114;48.260;10.988;2023-05-02T11:05:04;15.50;2.30
262;DHT22;114;48.260;10.988;2023-05-02T11:07:37;15.50;4.00
262;DHT22;114;48.260;10.988;2023-05-02T11:18:20;15.70;1.00
262;DHT22;114;48.260;10.988;2023-05-02T11:20:46;16.00;1.00
262;DHT22;114;48.260;10.988;2023-05-02T11:25:52;16.90;1.00
262;DHT22;114;48.260;10.988;2023-05-02T11:31:09;17.10;1.00
262;DHT22;114;48.260;10.988;2023-05-02T11:33:57;17.30;1.00
262;DHT22;114;48.260;10.988;2023-05-02T11:36:30;17.80;1.00
262;DHT22;114;48.260;10.988;2023-05-02T11:39:01;18.00;1.00
262;DHT22;114;48.260;10.988;2023-05-02T11:41:42;17.80;1.00
262;DHT22;114;48.260;10.988;2023-05-02T11:44:08;17.80;1.00
262;DHT22;114;48.260;10.988;2023-05-02T11:46:38;18.10;1.00
262;DHT22;114;48.260;10.988;2023-05-02T11:49:05;18.90;1.00
262;DHT22;114;48.260;10.988;2023-05-02T11:51:32;18.50;1.00
262;DHT22;114;48.260;10.988;2023-05-02T11:53:58;18.10;1.00
262;DHT22;114;48.260;10.988;2023-05-02T11:56:24;18.00;1.00
262;DHT22;114;48.260;10.988;2023-05-02T11:59:02;18.20;1.00
262;DHT22;114;48.260;10.988;2023-05-02T12:01:28;18.70;1.00
262;DHT22;114;48.260;10.988;2023-05-02T12:04:04;18.50;1.00
262;DHT22;114;48.260;10.988;2023-05-02T12:06:32;19.60;1.00
262;DHT22;114;48.260;10.988;2023-05-02T12:09:12;19.90;1.00
262;DHT22;114;48.260;10.988;2023-05-02T12:11:40;20.10;1.00
262;DHT22;114;48.260;10.988;2023-05-02T12:14:05;21.30;1.00
262;DHT22;114;48.260;10.988;2023-05-02T12:16:31;21.90;1.00
262;DHT22;114;48.260;10.988;2023-05-02T12:18:58;21.80;1.00
262;DHT22;114;48.260;10.988;2023-05-02T12:21:27;22.20;1.00
262;DHT22;114;48.260;10.988;2023-05-02T12:23:54;21.70;1.00
262;DHT22;114;48.260;10.988;2023-05-02T12:26:24;20.70;1.00
262;DHT22;114;48.260;10.988;2023-05-02T12:28:54;19.80;1.00
262;DHT22;114;48.260;10.988;2023-05-02T12:31:20;19.60;1.00
262;DHT22;114;48.260;10.988;2023-05-02T12:33:47;20.00;1.00
262;DHT22;114;48.260;10.988;2023-05-02T12:36:14;20.70;1.00
262;DHT22;114;48.260;10.988;2023-05-02T12:38:47;20.70;1.00
262;DHT22;114;48.260;10.988;2023-05-02T12:41:14;20.90;1.00
262;DHT22;114;48.260;10.988;2023-05-02T12:43:47;21.40;1.00
262;DHT22;114;48.260;10.988;2023-05-02T12:46:13;22.00;1.00
262;DHT22;114;48.260;10.988;2023-05-02T12:48:38;21.10;1.00
262;DHT22;114;48.260;10.988;2023-05-02T12:51:20;20.30;1.00
262;DHT22;114;48.260;10.988;2023-05-02T12:53:47;19.50;1.00
262;DHT22;114;48.260;10.988;2023-05-02T12:56:13;19.00;1.00
262;DHT22;114;48.260;10.988;2023-05-02T12:58:49;19.10;1.00
262;DHT22;114;48.260;10.988;2023-05-02T13:01:15;21.20;1.00
262;DHT22;114;48.260;10.988;2023-05-02T13:03:42;23.80;1.00
262;DHT22;114;48.260;10.988;2023-05-02T13:06:09;24.80;1.00
262;DHT22;114;48.260;10.988;2023-05-02T13:08:35;25.60;1.00
262;DHT22;114;48.260;10.988;2023-05-02T13:11:03;26.00;1.00
262;DHT22;114;48.260;10.988;2023-05-02T13:13:29;25.80;1.00
262;DHT22;114;48.260;10.988;2023-05-02T13:15:56;24.90;1.00
262;DHT22;114;48.260;10.988;2023-05-02T13:18:22;25.60;1.00
262;DHT22;114;48.260;10.988;2023-05-02T13:20:48;26.00;1.00
262;DHT22;114;48.260;10.988;2023-05-02T13:23:14;25.10;1.00
262;DHT22;114;48.260;10.988;2023-05-02T13:25:41;24.10;1.00
262;DHT22;114;48.260;10.988;2023-05-02T13:28:07;24.50;1.00
262;DHT22;114;48.260;10.988;2023-05-02T13:30:32;23.80;1.00
262;DHT22;114;48.260;10.988;2023-05-02T13:32:58;23.20;1.00
262;DHT22;114;48.260;10.988;2023-05-02T13:35:26;22.30;1.00
262;DHT22;114;48.260;10.988;2023-05-02T13:37:51;21.30;1.00
262;DHT22;114;48.260;10.988;2023-05-02T13:40:17;20.70;1.00
262;DHT22;114;48.260;10.988;2023-05-02T13:42:43;20.30;1.00
262;DHT22;114;48.260;10.988;2023-05-02T13:45:09;19.70;1.00
262;DHT22;114;48.260;10.988;2023-05-02T13:47:35;19.10;1.00
262;DHT22;114;48.260;10.988;2023-05-02T13:50:01;18.70;1.00
262;DHT22;114;48.260;10.988;2023-05-02T13:52:26;18.30;1.00
262;DHT22;114;48.260;10.988;2023-05-02T13:54:52;17.90;1.00
262;DHT22;114;48.260;10.988;2023-05-02T13:57:18;17.70;1.00
262;DHT22;114;48.260;10.988;2023-05-02T13:59:43;17.70;1.00
262;DHT22;114;48.260;10.988;2023-05-02T14:02:09;17.70;1.00
262;DHT22;114;48.260;10.988;2023-05-02T14:04:35;17.90;1.00
262;DHT22;114;48.260;10.988;2023-05-02T14:07:00;18.00;1.00
262;DHT22;114;48.260;10.988;2023-05-02T14:09:26;18.30;1.00
262;DHT22;114;48.260;10.988;2023-05-02T14:11:52;18.80;1.00
262;DHT22;114;48.260;10.988;2023-05-02T14:14:18;20.50;1.00
262;DHT22;114;48.260;10.988;2023-05-02T14:16:43;20.10;1.00
262;DHT22;114;48.260;10.988;2023-05-02T14:19:09;19.30;1.00
262;DHT22;114;48.260;10.988;2023-05-02T14:21:35;19.00;1.00
262;DHT22;114;48.260;10.988;2023-05-02T14:24:03;18.40;1.00
262;DHT22;114;48.260;10.988;2023-05-02T14:26:29;18.00;1.00
262;DHT22;114;48.260;10.988;2023-05-02T14:28:55;17.80;1.00
262;DHT22;114;48.260;10.988;2023-05-02T14:31:21;17.60;1.00
262;DHT22;114;48.260;10.988;2023-05-02T14:33:48;17.30;1.00
262;DHT22;114;48.260;10.988;2023-05-02T14:36:13;17.00;1.00
262;DHT22;114;48.260;10.988;2023-05-02T14:38:39;16.90;1.00
262;DHT22;114;48.260;10.988;2023-05-02T14:41:05;16.80;1.00
262;DHT22;114;48.260;10.988;2023-05-02T14:43:31;16.60;1.00
262;DHT22;114;48.260;10.988;2023-05-02T14:45:57;16.60;1.00
262;DHT22;114;48.260;10.988;2023-05-02T14:48:23;16.40;1.00
262;DHT22;114;48.260;10.988;2023-05-02T14:50:49;16.00;1.00
262;DHT22;114;48.260;10.988;2023-05-02T14:53:15;15.80;1.00
262;DHT22;114;48.260;10.988;2023-05-02T14:55:41;15.50;1.00
262;DHT22;114;48.260;10.988;2023-05-02T14:58:07;15.40;1.00
262;DHT22;114;48.260;10.988;2023-05-02T15:00:35;15.20;1.00
262;DHT22;114;48.260;10.988;2023-05-02T15:03:04;14.90;2.30
262;DHT22;114;48.260;10.988;2023-05-02T15:05:31;14.80;4.20
262;DHT22;114;48.260;10.988;2023-05-02T15:07:57;14.70;4.80
262;DHT22;114;48.260;10.988;2023-05-02T15:10:23;14.70;5.40
262;DHT22;114;48.260;10.988;2023-05-02T15:12:49;14.50;5.10
262;DHT22;114;48.260;10.988;2023-05-02T15:15:16;14.30;5.30
262;DHT22;114;48.260;10.988;2023-05-02T15:17:42;14.20;5.80
262;DHT22;114;48.260;10.988;2023-05-02T15:20:08;14.00;5.40
262;DHT22;114;48.260;10.988;2023-05-02T15:22:34;13.90;10.50
262;DHT22;114;48.260;10.988;2023-05-02T15:25:00;13.80;18.30
262;DHT22;114;48.260;10.988;2023-05-02T15:27:26;13.70;22.30
262;DHT22;114;48.260;10.988;2023-05-02T15:29:51;13.50;26.40
262;DHT22;114;48.260;10.988;2023-05-02T15:32:17;13.30;40.60
262;DHT22;114;48.260;10.988;2023-05-02T15:34:43;13.10;50.30
262;DHT22;114;48.260;10.988;2023-05-02T15:37:09;12.80;53.40
262;DHT22;114;48.260;10.988;2023-05-02T15:39:36;12.30;36.90
262;DHT22;114;48.260;10.988;2023-05-02T15:42:02;12.20;31.30
262;DHT22;114;48.260;10.988;2023-05-02T15:44:35;12.20;42.10
262;DHT22;114;48.260;10.988;2023-05-02T15:47:04;12.20;56.90
262;DHT22;114;48.260;10.988;2023-05-02T15:49:30;12.10;59.40
262;DHT22;114;48.260;10.988;2023-05-02T15:51:58;12.10;57.70
262;DHT22;114;48.260;10.988;2023-05-02T15:54:24;11.90;63.70
262;DHT22;114;48.260;10.988;2023-05-02T15:56:50;11.80;68.50
262;DHT22;114;48.260;10.988;2023-05-02T15:59:15;11.70;73.30
262;DHT22;114;48.260;10.988;2023-05-02T16:01:41;11.70;79.00
262;DHT22;114;48.260;10.988;2023-05-02T16:04:07;11.70;80.50
262;DHT22;114;48.260;10.988;2023-05-02T16:06:34;11.70;77.20
262;DHT22;114;48.260;10.988;2023-05-02T16:09:01;11.80;77.80
262;DHT22;114;48.260;10.988;2023-05-02T16:11:27;12.00;81.90
262;DHT22;114;48.260;10.988;2023-05-02T16:13:52;12.20;80.80
262;DHT22;114;48.260;10.988;2023-05-02T16:16:18;12.40;82.10
262;DHT22;114;48.260;10.988;2023-05-02T16:18:44;12.60;81.10
262;DHT22;114;48.260;10.988;2023-05-02T16:21:10;12.70;71.10
262;DHT22;114;48.260;10.988;2023-05-02T16:23:35;12.70;67.50
262;DHT22;114;48.260;10.988;2023-05-02T16:26:01;12.70;62.70
262;DHT22;114;48.260;10.988;2023-05-02T16:28:27;12.60;64.40
262;DHT22;114;48.260;10.988;2023-05-02T16:30:53;12.40;62.40
262;DHT22;114;48.260;10.988;2023-05-02T16:33:19;12.20;61.20
262;DHT22;114;48.260;10.988;2023-05-02T16:35:46;12.30;65.60
262;DHT22;114;48.260;10.988;2023-05-02T16:38:12;12.20;66.90
262;DHT22;114;48.260;10.988;2023-05-02T16:40:39;12.10;69.70
262;DHT22;114;48.260;10.988;2023-05-02T16:43:05;12.10;67.40
262;DHT22;114;48.260;10.988;2023-05-02T16:45:30;12.10;67.90
262;DHT22;114;48.260;10.988;2023-05-02T16:47:56;12.10;71.40
262;DHT22;114;48.260;10.988;2023-05-02T16:50:22;12.00;70.50
262;DHT22;114;48.260;10.988;2023-05-02T16:52:48;11.90;66.70
262;DHT22;114;48.260;10.988;2023-05-02T16:55:14;11.80;64.80
262;DHT22;114;48.260;10.988;2023-05-02T16:57:40;11.70;65.00
262;DHT22;114;48.260;10.988;2023-05-02T17:00:07;11.50;64.70
262;DHT22;114;48.260;10.988;2023-05-02T17:02:35;11.50;68.00
262;DHT22;114;48.260;10.988;2023-05-02T17:05:01;11.40;64.70
262;DHT22;114;48.260;10.988;2023-05-02T17:07:26;11.40;64.30
262;DHT22;114;48.260;10.988;2023-05-02T17:09:52;11.40;61.50
262;DHT22;114;48.260;10.988;2023-05-02T17:12:18;11.40;62.10
262;DHT22;114;48.260;10.988;2023-05-02T17:14:48;11.40;66.10
262;DHT22;114;48.260;10.988;2023-05-02T17:17:13;11.40;57.80
262;DHT22;114;48.260;10.988;2023-05-02T17:19:48;11.40;60.90